Fort Ransom, North Dakota
Current Conditions -  °F | °C
As of 4:15 PM on Thursday 23 Oct 2014 (Local Time) from KGWR Reporting Station
Clear Clear  
Wind Chill: 72°   Ceiling: Unl
Heat Index: 72°   Visibility: 10mi
Dew Point: 43°   Wind: 14mph
Humidity: 35%   Direction: 210°SSW
Pressure: 29.87"   Gusts: NA
Location:  46.52°N, 97.93°W
Report Text: KGWR 232115Z AUTO 21012KT 10SM CLR 22/06 A2987 RMK A01 P000
Loading
Personal Weather Stations






























Interactive Weather Map
Tropical Storm Tracking
New forecast layout! Learn more

10-Day Weather Forecast

Advertisements
Track Severe Weather on mobile